createdAt,value
2018-01-06T00:00:12.725Z,7.93
2018-01-06T00:01:13.326Z,7.88
2018-01-06T00:02:12.876Z,7.91
2018-01-06T00:03:12.768Z,8.00
2018-01-06T00:04:12.746Z,7.94
2018-01-06T00:05:12.709Z,7.97
2018-01-06T00:06:12.824Z,7.93
2018-01-06T00:07:12.889Z,7.94
2018-01-06T00:08:12.753Z,7.91
2018-01-06T00:09:12.995Z,7.93
2018-01-06T00:10:30.113Z,7.85
2018-01-06T00:12:21.061Z,7.91
2018-01-06T00:13:21.114Z,7.91
2018-01-06T00:14:21.031Z,7.88
2018-01-06T00:15:20.740Z,7.80
2018-01-06T00:16:20.720Z,7.94
2018-01-06T00:17:20.747Z,7.93
2018-01-06T00:18:20.901Z,7.93
2018-01-06T00:19:47.875Z,7.93
2018-01-06T00:21:26.374Z,7.95
2018-01-06T00:22:26.448Z,8.01
2018-01-06T00:24:21.287Z,8.00
2018-01-06T00:25:19.568Z,7.94
2018-01-06T00:26:19.580Z,7.97
2018-01-06T00:27:19.582Z,7.98
2018-01-06T00:28:19.556Z,7.95
2018-01-06T00:29:19.536Z,8.01
2018-01-06T00:30:19.609Z,7.94
2018-01-06T00:31:19.550Z,7.98
2018-01-06T00:32:19.522Z,7.90
2018-01-06T00:33:19.517Z,7.97
2018-01-06T00:34:19.517Z,7.97
2018-01-06T00:35:19.520Z,7.94
2018-01-06T00:36:19.512Z,7.98
2018-01-06T00:37:19.532Z,8.00
2018-01-06T00:38:19.494Z,7.97
2018-01-06T00:39:19.504Z,7.93
2018-01-06T00:40:19.499Z,7.91
2018-01-06T00:41:19.526Z,7.97
2018-01-06T00:42:19.498Z,7.87
2018-01-06T00:43:19.480Z,7.85
2018-01-06T00:44:19.485Z,7.85
2018-01-06T00:45:19.463Z,8.00
2018-01-06T00:46:19.480Z,7.90
2018-01-06T00:47:19.452Z,7.90
2018-01-06T00:48:19.461Z,7.94
2018-01-06T00:49:19.460Z,7.94
2018-01-06T00:50:19.457Z,7.90
2018-01-06T00:51:19.453Z,7.91
2018-01-06T00:52:19.449Z,7.91
2018-01-06T00:53:19.428Z,7.93
2018-01-06T00:54:19.445Z,7.87
2018-01-06T00:55:19.428Z,7.85
2018-01-06T00:56:19.434Z,7.94
2018-01-06T00:57:19.426Z,7.87
2018-01-06T00:58:19.454Z,7.88
2018-01-06T00:59:19.421Z,7.97
2018-01-06T01:00:19.436Z,7.95
2018-01-06T01:01:19.455Z,7.94
2018-01-06T01:02:19.456Z,7.91
2018-01-06T01:03:19.383Z,8.00
2018-01-06T01:04:19.417Z,7.98
2018-01-06T01:05:19.410Z,8.03
2018-01-06T01:06:19.395Z,8.01
2018-01-06T01:07:19.381Z,8.03
2018-01-06T01:08:19.373Z,8.08
2018-01-06T01:09:19.383Z,8.05
2018-01-06T01:10:19.356Z,8.06
2018-01-06T01:11:19.353Z,8.03
2018-01-06T01:12:19.350Z,8.01
2018-01-06T01:13:19.346Z,8.05
2018-01-06T01:14:19.366Z,8.06
2018-01-06T01:15:19.408Z,8.03
2018-01-06T01:16:19.336Z,8.08
2018-01-06T01:17:19.334Z,8.08
2018-01-06T01:18:19.363Z,8.03
2018-01-06T01:19:19.372Z,8.03
2018-01-06T01:20:19.345Z,8.08
2018-01-06T01:21:19.323Z,8.10
2018-01-06T01:22:19.313Z,8.19
2018-01-06T01:23:19.312Z,8.06
2018-01-06T01:24:19.307Z,8.20
2018-01-06T01:25:19.298Z,8.24
2018-01-06T01:26:19.301Z,8.20
2018-01-06T01:27:19.300Z,8.28
2018-01-06T01:28:19.283Z,8.24
2018-01-06T01:29:19.308Z,8.27
2018-01-06T01:30:19.278Z,8.30
2018-01-06T01:31:19.282Z,8.26
2018-01-06T01:32:19.281Z,8.37
2018-01-06T01:33:19.276Z,8.33
2018-01-06T01:34:19.263Z,8.46
2018-01-06T01:35:19.270Z,8.42
2018-01-06T01:36:19.257Z,8.49
2018-01-06T01:37:19.251Z,8.46
2018-01-06T01:38:19.248Z,8.48
2018-01-06T01:39:19.239Z,8.42
2018-01-06T01:40:19.263Z,8.48
2018-01-06T01:41:19.238Z,8.45
2018-01-06T01:42:19.230Z,8.53
2018-01-06T01:43:19.252Z,8.58
2018-01-06T01:44:19.225Z,8.58
2018-01-06T01:45:19.229Z,8.58
2018-01-06T01:46:19.213Z,8.55
2018-01-06T01:47:19.218Z,8.63
2018-01-06T01:48:19.221Z,8.56
2018-01-06T01:49:19.224Z,8.67
2018-01-06T01:50:19.203Z,8.70
2018-01-06T01:51:19.196Z,8.64
2018-01-06T01:52:19.194Z,8.67
2018-01-06T01:53:19.187Z,8.64
2018-01-06T01:54:19.198Z,8.67
2018-01-06T01:55:19.181Z,8.67
2018-01-06T01:56:19.179Z,8.64
2018-01-06T01:57:19.196Z,8.69
2018-01-06T01:58:19.165Z,8.69
2018-01-06T01:59:19.162Z,8.73
2018-01-06T02:00:19.181Z,8.76
2018-01-06T02:01:19.164Z,8.74
2018-01-06T02:02:19.185Z,8.74
2018-01-06T02:03:19.159Z,8.81
2018-01-06T02:04:19.148Z,8.76
2018-01-06T02:05:19.151Z,8.78
2018-01-06T02:06:19.157Z,8.85
2018-01-06T02:07:19.183Z,8.81
2018-01-06T02:08:19.164Z,8.74
2018-01-06T02:09:19.127Z,8.85
2018-01-06T02:10:21.713Z,8.81
2018-01-06T02:11:19.129Z,8.85
2018-01-06T02:12:19.138Z,8.87
2018-01-06T02:13:19.116Z,8.95
2018-01-06T02:14:19.111Z,8.97
2018-01-06T02:15:19.102Z,8.92
2018-01-06T02:16:19.099Z,8.97
2018-01-06T02:17:19.096Z,8.95
2018-01-06T02:18:19.095Z,8.94
2018-01-06T02:19:19.091Z,8.95
2018-01-06T02:20:19.088Z,8.91
2018-01-06T02:21:19.085Z,8.95
2018-01-06T02:22:19.111Z,8.87
2018-01-06T02:23:19.093Z,8.82
2018-01-06T02:24:19.105Z,8.84
2018-01-06T02:25:19.095Z,8.92
2018-01-06T02:26:19.058Z,8.91
2018-01-06T02:27:19.080Z,8.89
2018-01-06T02:28:19.061Z,8.88
2018-01-06T02:29:19.108Z,8.88
2018-01-06T02:30:19.075Z,8.81
2018-01-06T02:31:19.067Z,8.71
2018-01-06T02:32:19.068Z,8.79
2018-01-06T02:33:19.074Z,8.74
2018-01-06T02:34:19.061Z,8.88
2018-01-06T02:35:19.030Z,8.79
2018-01-06T02:36:19.030Z,8.84
2018-01-06T02:37:19.027Z,8.76
2018-01-06T02:38:19.074Z,8.74
2018-01-06T02:39:19.012Z,8.76
2018-01-06T02:40:19.082Z,8.70
2018-01-06T02:41:19.126Z,8.69
2018-01-06T02:42:19.066Z,8.70
2018-01-06T02:43:19.001Z,8.63
2018-01-06T02:44:41.172Z,8.66
2018-01-06T02:46:22.453Z,8.63
2018-01-06T02:47:22.436Z,8.66
2018-01-06T02:49:35.553Z,8.63
2018-01-06T02:50:35.388Z,8.63
2018-01-06T02:52:39.395Z,8.64
2018-01-06T02:53:39.135Z,8.63
2018-01-06T02:55:33.531Z,8.66
2018-01-06T02:56:33.507Z,8.66
2018-01-06T02:58:27.008Z,8.66
2018-01-06T02:59:26.883Z,8.67
2018-01-06T03:01:22.808Z,8.64
2018-01-06T03:02:22.755Z,8.67
2018-01-06T03:04:16.166Z,8.63
2018-01-06T03:05:16.142Z,8.64
2018-01-06T03:06:16.358Z,8.66
2018-01-06T03:07:16.331Z,8.56
2018-01-06T03:08:16.164Z,8.67
2018-01-06T03:09:16.084Z,8.69
2018-01-06T03:10:16.100Z,8.71
2018-01-06T03:11:16.147Z,8.71
2018-01-06T03:12:16.080Z,8.76
2018-01-06T03:13:16.097Z,8.73
2018-01-06T03:14:16.083Z,8.79
2018-01-06T03:15:16.076Z,8.73
2018-01-06T03:16:16.064Z,8.82
2018-01-06T03:17:16.065Z,8.79
2018-01-06T03:18:16.076Z,8.85
2018-01-06T03:19:16.054Z,8.92
2018-01-06T03:20:16.111Z,8.87
2018-01-06T03:21:16.069Z,8.95
2018-01-06T03:22:16.091Z,8.82
2018-01-06T03:23:16.138Z,8.92
2018-01-06T03:24:16.038Z,8.87
2018-01-06T03:25:16.102Z,8.87
2018-01-06T03:26:16.079Z,8.87
2018-01-06T03:27:16.059Z,8.92
2018-01-06T03:28:16.028Z,8.91
2018-01-06T03:29:16.086Z,8.87
2018-01-06T03:30:16.047Z,8.97
2018-01-06T03:31:16.047Z,8.95
2018-01-06T03:32:16.046Z,8.92
2018-01-06T03:33:16.065Z,8.94
2018-01-06T03:34:16.054Z,8.92
2018-01-06T03:35:16.003Z,8.99
2018-01-06T03:36:15.992Z,9.02
2018-01-06T03:37:16.000Z,8.95
2018-01-06T03:38:16.044Z,9.00
2018-01-06T03:39:15.976Z,8.99
2018-01-06T03:40:15.991Z,9.03
2018-01-06T03:41:15.976Z,9.00
2018-01-06T03:42:15.981Z,9.02
2018-01-06T03:43:15.985Z,9.06
2018-01-06T03:44:16.024Z,9.11
2018-01-06T03:45:15.975Z,9.10
2018-01-06T03:46:15.958Z,9.19
2018-01-06T03:47:15.959Z,9.22
2018-01-06T03:48:15.960Z,9.18
2018-01-06T03:49:15.991Z,9.13
2018-01-06T03:50:15.968Z,9.13
2018-01-06T03:51:15.969Z,9.13
2018-01-06T03:52:15.933Z,9.13
2018-01-06T03:53:15.957Z,9.19
2018-01-06T03:54:16.050Z,9.19
2018-01-06T03:55:15.924Z,9.18
2018-01-06T03:56:15.932Z,9.16
2018-01-06T03:57:15.922Z,9.18
2018-01-06T03:58:15.960Z,9.13
2018-01-06T03:59:15.910Z,9.13
2018-01-06T04:00:15.933Z,9.16
2018-01-06T04:01:15.915Z,9.16
2018-01-06T04:02:15.908Z,9.25
2018-01-06T04:03:15.931Z,9.14
2018-01-06T04:04:15.923Z,9.16
2018-01-06T04:05:15.894Z,9.18
2018-01-06T04:06:15.913Z,9.10
2018-01-06T04:07:15.888Z,9.10
2018-01-06T04:08:15.882Z,9.08
2018-01-06T04:09:15.884Z,9.00
2018-01-06T04:10:15.877Z,9.04
2018-01-06T04:11:15.872Z,9.00
2018-01-06T04:12:15.871Z,9.08
2018-01-06T04:13:15.881Z,8.94
2018-01-06T04:14:15.861Z,9.04
2018-01-06T04:15:15.865Z,8.97
2018-01-06T04:16:15.856Z,9.03
2018-01-06T04:17:15.864Z,8.95
2018-01-06T04:18:15.846Z,9.06
2018-01-06T04:19:15.843Z,8.92
2018-01-06T04:20:15.846Z,8.91
2018-01-06T04:21:15.866Z,9.02
2018-01-06T04:22:15.834Z,8.97
2018-01-06T04:23:15.838Z,8.95
2018-01-06T04:24:15.830Z,8.99
2018-01-06T04:25:15.826Z,8.94
2018-01-06T04:26:15.827Z,8.97
2018-01-06T04:27:15.845Z,8.87
2018-01-06T04:28:16.703Z,8.84
2018-01-06T04:29:15.834Z,8.92
2018-01-06T04:30:15.811Z,8.81
2018-01-06T04:31:15.805Z,8.89
2018-01-06T04:32:15.801Z,8.82
2018-01-06T04:33:15.793Z,8.88
2018-01-06T04:34:15.789Z,8.89
2018-01-06T04:35:15.799Z,8.91
2018-01-06T04:36:15.788Z,8.89
2018-01-06T04:37:15.792Z,8.85
2018-01-06T04:38:15.779Z,8.87
2018-01-06T04:39:15.776Z,9.00
2018-01-06T04:40:15.796Z,8.95
2018-01-06T04:41:15.774Z,9.00
2018-01-06T04:42:15.770Z,9.04
2018-01-06T04:43:15.768Z,9.10
2018-01-06T04:44:15.770Z,9.11
2018-01-06T04:45:15.756Z,9.04
2018-01-06T04:46:16.839Z,9.02
2018-01-06T04:47:15.797Z,9.02
2018-01-06T04:48:15.772Z,9.02
2018-01-06T04:49:15.948Z,9.08
2018-01-06T04:50:15.868Z,9.00
2018-01-06T04:51:15.975Z,9.02
2018-01-06T04:52:36.573Z,9.08
2018-01-06T04:54:26.498Z,9.00
2018-01-06T04:55:26.201Z,9.06
2018-01-06T04:57:34.349Z,9.10
2018-01-06T04:58:34.470Z,9.03
2018-01-06T05:00:40.113Z,9.04
2018-01-06T05:01:39.939Z,9.02
2018-01-06T05:02:39.777Z,9.03
2018-01-06T05:03:40.206Z,9.00
2018-01-06T05:04:40.224Z,9.00
2018-01-06T05:05:39.685Z,9.06
2018-01-06T05:06:39.631Z,9.08
2018-01-06T05:07:39.664Z,9.16
2018-01-06T05:08:39.630Z,9.08
2018-01-06T05:09:39.641Z,9.18
2018-01-06T05:10:39.631Z,9.13
2018-01-06T05:11:39.644Z,9.11
2018-01-06T05:12:39.652Z,9.25
2018-01-06T05:13:39.625Z,9.19
2018-01-06T05:14:39.605Z,9.26
2018-01-06T05:15:39.610Z,9.23
2018-01-06T05:16:39.612Z,9.29
2018-01-06T05:17:39.608Z,9.34
2018-01-06T05:18:39.608Z,9.31
2018-01-06T05:19:39.605Z,9.32
2018-01-06T05:20:39.590Z,9.28
2018-01-06T05:21:39.587Z,9.22
2018-01-06T05:22:39.590Z,9.26
2018-01-06T05:23:39.589Z,9.34
2018-01-06T05:24:39.660Z,9.25
2018-01-06T05:25:39.573Z,9.37
2018-01-06T05:26:39.566Z,9.34
2018-01-06T05:27:39.570Z,9.31
2018-01-06T05:28:39.583Z,9.34
2018-01-06T05:29:39.578Z,9.34
2018-01-06T05:30:39.574Z,9.25
2018-01-06T05:31:39.583Z,9.26
2018-01-06T05:32:41.176Z,9.19
2018-01-06T05:33:39.559Z,9.22
2018-01-06T05:34:39.542Z,9.16
2018-01-06T05:35:39.536Z,9.08
2018-01-06T05:36:39.554Z,9.06
2018-01-06T05:37:39.535Z,9.04
2018-01-06T05:38:39.530Z,9.03
2018-01-06T05:39:39.555Z,9.06
2018-01-06T05:40:39.524Z,9.11
2018-01-06T05:41:39.551Z,9.06
2018-01-06T05:42:39.508Z,8.91
2018-01-06T05:43:39.514Z,8.97
2018-01-06T05:44:39.511Z,8.91
2018-01-06T05:45:39.508Z,9.03
2018-01-06T05:46:39.512Z,9.00
2018-01-06T05:47:39.498Z,9.03
2018-01-06T05:48:39.493Z,9.03
2018-01-06T05:49:39.502Z,9.03
2018-01-06T05:50:39.513Z,9.03
2018-01-06T05:51:39.506Z,9.06
2018-01-06T05:52:39.482Z,9.11
2018-01-06T05:53:39.476Z,9.10
2018-01-06T05:54:39.503Z,9.19
2018-01-06T05:55:39.485Z,9.16
2018-01-06T05:56:39.525Z,9.23
2018-01-06T05:57:39.522Z,9.36
2018-01-06T05:58:39.453Z,9.29
2018-01-06T05:59:39.449Z,9.32
2018-01-06T06:00:39.448Z,9.23
2018-01-06T06:01:39.437Z,9.26
2018-01-06T06:02:39.440Z,9.34
2018-01-06T06:03:39.472Z,9.16
2018-01-06T06:04:39.433Z,9.22
2018-01-06T06:05:39.429Z,9.13
2018-01-06T06:06:39.434Z,9.13
2018-01-06T06:07:39.420Z,9.14
2018-01-06T06:08:39.427Z,9.14
2018-01-06T06:09:39.412Z,9.03
2018-01-06T06:10:39.408Z,9.04
2018-01-06T06:11:39.426Z,8.94
2018-01-06T06:12:39.408Z,9.00
2018-01-06T06:13:39.518Z,8.87
2018-01-06T06:14:39.392Z,8.85
2018-01-06T06:15:39.386Z,8.81
2018-01-06T06:16:39.384Z,8.67
2018-01-06T06:17:39.379Z,8.64
2018-01-06T06:18:39.476Z,8.60
2018-01-06T06:19:39.372Z,8.56
2018-01-06T06:20:39.372Z,8.52
2018-01-06T06:21:39.362Z,8.42
2018-01-06T06:22:39.376Z,8.44
2018-01-06T06:23:39.356Z,8.37
2018-01-06T06:24:39.348Z,8.33
2018-01-06T06:25:39.348Z,8.31
2018-01-06T06:26:39.352Z,8.37
2018-01-06T06:27:39.336Z,8.23
2018-01-06T06:28:39.361Z,8.31
2018-01-06T06:29:39.324Z,8.27
2018-01-06T06:30:39.325Z,8.16
2018-01-06T06:31:39.316Z,8.23
2018-01-06T06:32:39.351Z,8.23
2018-01-06T06:33:39.348Z,8.27
2018-01-06T06:34:39.333Z,8.24
2018-01-06T06:35:39.403Z,8.26
2018-01-06T06:36:39.328Z,8.19
2018-01-06T06:37:39.294Z,8.15
2018-01-06T06:38:39.474Z,8.09
2018-01-06T06:39:39.415Z,8.08
2018-01-06T06:40:39.336Z,7.98
2018-01-06T06:41:39.450Z,8.06
2018-01-06T06:42:39.267Z,7.97
2018-01-06T06:43:39.262Z,7.98
2018-01-06T06:44:39.261Z,7.90
2018-01-06T06:45:39.256Z,7.93
2018-01-06T06:46:39.263Z,7.97
2018-01-06T06:47:39.255Z,7.79
2018-01-06T06:48:39.244Z,7.87
2018-01-06T06:49:39.248Z,7.77
2018-01-06T06:50:39.236Z,7.83
2018-01-06T06:51:39.235Z,7.75
2018-01-06T06:52:39.232Z,7.72
2018-01-06T06:53:39.224Z,7.73
2018-01-06T06:54:39.217Z,7.75
2018-01-06T06:55:39.212Z,7.69
2018-01-06T06:56:39.205Z,7.58
2018-01-06T06:57:39.225Z,7.60
2018-01-06T06:58:39.197Z,7.53
2018-01-06T06:59:39.188Z,7.54
2018-01-06T07:00:39.192Z,7.43
2018-01-06T07:01:39.425Z,7.42
2018-01-06T07:02:39.191Z,7.42
2018-01-06T07:03:39.212Z,7.40
2018-01-06T07:04:39.172Z,7.39
2018-01-06T07:05:39.325Z,7.38
2018-01-06T07:06:39.169Z,7.39
2018-01-06T07:07:39.170Z,7.29
2018-01-06T07:08:39.170Z,7.23
2018-01-06T07:09:39.143Z,7.29
2018-01-06T07:10:39.140Z,7.24
2018-01-06T07:11:39.156Z,7.24
2018-01-06T07:12:39.141Z,7.23
2018-01-06T07:13:39.156Z,7.29
2018-01-06T07:14:39.138Z,7.18
2018-01-06T07:15:39.198Z,7.23
2018-01-06T07:16:39.184Z,7.24
2018-01-06T07:17:39.134Z,7.24
2018-01-06T07:18:39.106Z,7.24
2018-01-06T07:19:39.097Z,7.21
2018-01-06T07:20:39.121Z,7.28
2018-01-06T07:21:39.114Z,7.29
2018-01-06T07:22:39.076Z,7.23
2018-01-06T07:23:39.081Z,7.20
2018-01-06T07:24:39.070Z,7.24
2018-01-06T07:25:39.064Z,7.14
2018-01-06T07:26:39.069Z,7.23
2018-01-06T07:27:39.072Z,7.21
2018-01-06T07:28:39.048Z,7.23
2018-01-06T07:29:39.055Z,7.21
2018-01-06T07:30:39.043Z,7.23
2018-01-06T07:31:39.706Z,7.23
2018-01-06T07:32:39.029Z,7.24
2018-01-06T07:33:39.024Z,7.23
2018-01-06T07:34:39.030Z,7.17
2018-01-06T07:35:39.029Z,7.28
2018-01-06T07:36:39.012Z,7.21
2018-01-06T07:37:39.008Z,7.20
2018-01-06T07:38:38.997Z,7.24
2018-01-06T07:39:38.997Z,7.13
2018-01-06T07:40:39.011Z,7.17
2018-01-06T07:41:39.012Z,7.15
2018-01-06T07:42:38.982Z,7.15
2018-01-06T07:43:38.971Z,7.18
2018-01-06T07:44:38.965Z,7.11
2018-01-06T07:45:38.966Z,7.17
2018-01-06T07:46:38.973Z,7.20
2018-01-06T07:47:38.962Z,7.10
2018-01-06T07:48:38.966Z,7.06
2018-01-06T07:49:38.945Z,7.13
2018-01-06T07:50:38.940Z,7.20
2018-01-06T07:51:38.940Z,6.99
2018-01-06T07:52:38.929Z,7.10
2018-01-06T07:53:38.951Z,7.06
2018-01-06T07:54:38.916Z,7.03
2018-01-06T07:55:38.925Z,7.07
2018-01-06T07:56:38.922Z,7.06
2018-01-06T07:57:38.909Z,7.05
2018-01-06T07:58:38.901Z,7.07
2018-01-06T07:59:38.895Z,7.06
2018-01-06T08:00:38.886Z,7.15
2018-01-06T08:01:39.718Z,7.02
2018-01-06T08:02:38.905Z,7.02
2018-01-06T08:03:38.904Z,7.07
2018-01-06T08:04:38.901Z,7.13
2018-01-06T08:05:38.878Z,7.06
2018-01-06T08:06:38.911Z,7.03
2018-01-06T08:07:38.854Z,7.11
2018-01-06T08:08:38.847Z,7.06
2018-01-06T08:09:38.868Z,7.28
2018-01-06T08:10:38.853Z,7.24
2018-01-06T08:11:38.833Z,7.24
2018-01-06T08:12:38.846Z,7.23
2018-01-06T08:13:38.835Z,7.24
2018-01-06T08:14:38.829Z,7.28
2018-01-06T08:15:38.811Z,7.33
2018-01-06T08:16:38.809Z,7.35
2018-01-06T08:17:38.855Z,7.32
2018-01-06T08:18:38.803Z,7.42
2018-01-06T08:19:43.759Z,7.42
2018-01-06T08:20:38.825Z,7.45
2018-01-06T08:21:38.784Z,7.45
2018-01-06T08:22:38.816Z,7.53
2018-01-06T08:23:38.771Z,7.51
2018-01-06T08:24:38.769Z,7.50
2018-01-06T08:25:39.721Z,7.61
2018-01-06T08:26:40.763Z,7.58
2018-01-06T08:27:38.751Z,7.61
2018-01-06T08:28:38.804Z,7.72
2018-01-06T08:29:38.760Z,7.69
2018-01-06T08:30:38.776Z,7.72
2018-01-06T08:31:38.834Z,7.67
2018-01-06T08:32:38.796Z,7.73
2018-01-06T08:33:38.721Z,7.77
2018-01-06T08:34:38.835Z,7.75
2018-01-06T08:35:38.712Z,7.76
2018-01-06T08:36:38.759Z,7.83
2018-01-06T08:37:39.227Z,7.80
2018-01-06T08:38:38.730Z,7.82
2018-01-06T08:39:38.724Z,7.80
2018-01-06T08:40:38.753Z,7.73
2018-01-06T08:41:38.821Z,7.85
2018-01-06T08:42:38.680Z,7.90
2018-01-06T08:43:43.291Z,7.90
2018-01-06T08:44:38.739Z,7.93
2018-01-06T08:45:38.722Z,7.88
2018-01-06T08:46:38.760Z,7.91
2018-01-06T08:47:38.661Z,7.97
2018-01-06T08:48:38.712Z,7.88
2018-01-06T08:49:38.651Z,7.97
2018-01-06T08:50:38.646Z,8.01
2018-01-06T08:51:38.641Z,8.00
2018-01-06T08:52:38.699Z,7.98
2018-01-06T08:53:38.643Z,8.00
2018-01-06T08:54:38.640Z,8.08
2018-01-06T08:55:38.627Z,8.03
2018-01-06T08:56:38.630Z,8.10
2018-01-06T08:57:38.618Z,8.05
2018-01-06T08:58:38.630Z,8.09
2018-01-06T08:59:39.256Z,8.10
2018-01-06T09:00:38.610Z,8.06
2018-01-06T09:01:38.604Z,8.03
2018-01-06T09:02:38.600Z,8.15
2018-01-06T09:03:38.595Z,8.09
2018-01-06T09:04:38.600Z,8.20
2018-01-06T09:05:40.258Z,8.19
2018-01-06T09:06:38.588Z,8.26
2018-01-06T09:07:38.646Z,8.23
2018-01-06T09:08:38.613Z,8.23
2018-01-06T09:09:38.619Z,8.19
2018-01-06T09:10:38.562Z,8.23
2018-01-06T09:11:38.569Z,8.23
2018-01-06T09:12:38.558Z,8.15
2018-01-06T09:13:38.562Z,8.16
2018-01-06T09:14:38.584Z,8.16
2018-01-06T09:15:38.547Z,8.15
2018-01-06T09:16:38.548Z,8.23
2018-01-06T09:17:38.577Z,8.37
2018-01-06T09:18:39.521Z,8.34
2018-01-06T09:19:38.533Z,8.36
2018-01-06T09:20:38.525Z,8.45
2018-01-06T09:21:38.555Z,8.38
2018-01-06T09:22:38.594Z,8.44
2018-01-06T09:23:38.560Z,8.42
2018-01-06T09:24:38.543Z,8.42
2018-01-06T09:25:38.656Z,8.41
2018-01-06T09:26:38.537Z,8.44
2018-01-06T09:27:38.562Z,8.45
2018-01-06T09:28:38.611Z,8.49
2018-01-06T09:29:38.546Z,8.53
2018-01-06T09:30:38.485Z,8.60
2018-01-06T09:31:38.535Z,8.66
2018-01-06T09:32:38.505Z,8.78
2018-01-06T09:33:38.476Z,8.79
2018-01-06T09:34:38.517Z,8.73
2018-01-06T09:35:38.482Z,8.79
2018-01-06T09:36:38.540Z,8.71
2018-01-06T09:37:38.527Z,8.78
2018-01-06T09:38:38.540Z,8.87
2018-01-06T09:39:38.470Z,8.95
2018-01-06T09:40:38.455Z,8.95
2018-01-06T09:41:54.307Z,9.02
2018-01-06T09:42:38.489Z,8.92
2018-01-06T09:43:38.450Z,9.00
2018-01-06T09:44:42.413Z,8.94
2018-01-06T09:45:39.181Z,9.02
2018-01-06T09:46:38.500Z,9.06
2018-01-06T09:47:38.430Z,9.25
2018-01-06T09:48:38.605Z,9.19
2018-01-06T09:49:38.458Z,9.21
2018-01-06T09:50:38.876Z,9.23
2018-01-06T09:51:38.454Z,9.31
2018-01-06T09:52:38.425Z,9.34
2018-01-06T09:53:38.446Z,9.47
2018-01-06T09:54:38.407Z,9.46
2018-01-06T09:55:39.259Z,9.56
2018-01-06T09:56:38.406Z,9.58
2018-01-06T09:57:38.423Z,9.59
2018-01-06T09:58:38.392Z,9.41
2018-01-06T09:59:38.452Z,9.55
2018-01-06T10:00:38.389Z,9.59
2018-01-06T10:01:38.397Z,9.65
2018-01-06T10:02:38.384Z,9.68
2018-01-06T10:03:38.382Z,9.68
2018-01-06T10:04:38.478Z,9.76
2018-01-06T10:05:38.373Z,9.79
2018-01-06T10:06:38.378Z,9.84
2018-01-06T10:07:38.434Z,9.79
2018-01-06T10:08:38.533Z,9.82
2018-01-06T10:09:38.359Z,9.80
2018-01-06T10:10:38.360Z,9.89
2018-01-06T10:11:38.360Z,9.86
2018-01-06T10:12:38.358Z,9.83
2018-01-06T10:13:38.356Z,9.84
2018-01-06T10:14:38.345Z,9.94
2018-01-06T10:15:38.351Z,10.04
2018-01-06T10:16:38.365Z,10.04
2018-01-06T10:17:38.344Z,9.97
2018-01-06T10:18:38.340Z,10.12
2018-01-06T10:19:38.339Z,9.99
2018-01-06T10:20:38.339Z,10.10
2018-01-06T10:21:38.339Z,10.13
2018-01-06T10:22:38.330Z,10.20
2018-01-06T10:23:38.448Z,10.19
2018-01-06T10:24:38.323Z,10.22
2018-01-06T10:25:38.410Z,10.26
2018-01-06T10:26:38.317Z,10.25
2018-01-06T10:27:40.235Z,10.35
2018-01-06T10:28:38.314Z,10.37
2018-01-06T10:29:38.310Z,10.51
2018-01-06T10:30:38.605Z,10.51
2018-01-06T10:31:38.327Z,10.64
2018-01-06T10:32:38.312Z,10.71
2018-01-06T10:33:38.322Z,10.63
2018-01-06T10:34:38.300Z,10.61
2018-01-06T10:35:38.363Z,10.61
2018-01-06T10:36:38.299Z,10.72
2018-01-06T10:37:38.785Z,10.64
2018-01-06T10:38:38.290Z,10.72
2018-01-06T10:39:38.290Z,10.67
2018-01-06T10:40:38.296Z,10.75
2018-01-06T10:41:38.286Z,10.72
2018-01-06T10:42:38.292Z,10.72
2018-01-06T10:43:38.291Z,10.56
2018-01-06T10:44:38.286Z,10.72
2018-01-06T10:45:38.283Z,10.72
2018-01-06T10:46:38.278Z,10.67
2018-01-06T10:47:38.273Z,10.64
2018-01-06T10:48:38.355Z,10.68
2018-01-06T10:49:38.319Z,10.71
2018-01-06T10:50:38.274Z,10.60
2018-01-06T10:51:38.262Z,10.69
2018-01-06T10:52:38.276Z,10.69
2018-01-06T10:53:38.406Z,10.75
2018-01-06T10:54:38.331Z,10.81
2018-01-06T10:55:38.272Z,10.90
2018-01-06T10:56:38.254Z,10.84
2018-01-06T10:57:38.288Z,10.96
2018-01-06T10:58:38.252Z,10.96
2018-01-06T10:59:38.251Z,10.99
2018-01-06T11:00:38.252Z,10.96
2018-01-06T11:01:38.251Z,10.96
2018-01-06T11:02:38.255Z,11.00
2018-01-06T11:03:38.255Z,11.04
2018-01-06T11:04:38.239Z,11.14
2018-01-06T11:05:38.245Z,11.15
2018-01-06T11:06:38.236Z,11.18
2018-01-06T11:07:38.243Z,11.22
2018-01-06T11:08:38.244Z,11.27
2018-01-06T11:09:38.240Z,11.40
2018-01-06T11:10:38.258Z,11.45
2018-01-06T11:11:38.232Z,11.44
2018-01-06T11:12:38.236Z,11.54
2018-01-06T11:13:38.234Z,11.51
2018-01-06T11:14:38.230Z,11.37
2018-01-06T11:15:38.225Z,11.29
2018-01-06T11:16:38.236Z,11.18
2018-01-06T11:17:38.225Z,11.12
2018-01-06T11:18:38.241Z,11.11
2018-01-06T11:19:38.220Z,11.07
2018-01-06T11:20:38.229Z,11.05
2018-01-06T11:21:38.218Z,11.02
2018-01-06T11:22:38.220Z,11.15
2018-01-06T11:23:38.219Z,11.08
2018-01-06T11:24:38.219Z,11.14
2018-01-06T11:25:38.220Z,10.94
2018-01-06T11:26:38.222Z,10.92
2018-01-06T11:27:38.212Z,10.96
2018-01-06T11:28:38.213Z,10.93
2018-01-06T11:29:38.215Z,10.97
2018-01-06T11:30:38.213Z,10.94
2018-01-06T11:31:38.206Z,10.96
2018-01-06T11:32:38.206Z,10.89
2018-01-06T11:33:38.207Z,10.99
2018-01-06T11:34:38.210Z,10.93
2018-01-06T11:35:38.239Z,11.05
2018-01-06T11:36:38.195Z,11.07
2018-01-06T11:37:38.193Z,11.04
2018-01-06T11:38:38.201Z,11.05
2018-01-06T11:39:38.201Z,11.10
2018-01-06T11:40:38.197Z,11.11
2018-01-06T11:41:38.193Z,11.04
2018-01-06T11:42:38.214Z,11.04
2018-01-06T11:43:38.189Z,11.10
2018-01-06T11:44:38.191Z,11.04
2018-01-06T11:45:38.199Z,10.92
2018-01-06T11:46:38.184Z,10.92
2018-01-06T11:47:38.214Z,10.87
2018-01-06T11:48:38.212Z,10.94
2018-01-06T11:49:38.179Z,10.89
2018-01-06T11:50:38.180Z,10.94
2018-01-06T11:51:38.179Z,10.82
2018-01-06T11:52:38.183Z,10.81
2018-01-06T11:53:38.194Z,10.92
2018-01-06T11:54:38.169Z,10.94
2018-01-06T11:55:38.220Z,10.81
2018-01-06T11:56:38.203Z,10.96
2018-01-06T11:57:38.169Z,10.86
2018-01-06T11:58:38.165Z,10.87
2018-01-06T11:59:38.165Z,10.86
2018-01-06T12:00:38.166Z,10.81
2018-01-06T12:01:38.160Z,10.84
2018-01-06T12:02:38.160Z,10.89
2018-01-06T12:03:38.776Z,10.90
2018-01-06T12:04:38.162Z,10.96
2018-01-06T12:05:38.192Z,10.93
2018-01-06T12:06:38.160Z,11.00
2018-01-06T12:07:38.189Z,10.94
2018-01-06T12:08:38.150Z,10.93
2018-01-06T12:09:38.169Z,10.94
2018-01-06T12:10:38.182Z,10.94
2018-01-06T12:11:38.143Z,10.93
2018-01-06T12:12:38.143Z,10.96
2018-01-06T12:13:38.146Z,10.94
2018-01-06T12:14:38.145Z,10.96
2018-01-06T12:15:38.154Z,10.92
2018-01-06T12:16:38.169Z,10.90
2018-01-06T12:17:38.137Z,10.92
2018-01-06T12:18:38.135Z,10.89
2018-01-06T12:19:38.134Z,10.86
2018-01-06T12:20:38.132Z,10.93
2018-01-06T12:21:38.128Z,10.92
2018-01-06T12:22:38.139Z,10.96
2018-01-06T12:23:38.128Z,10.92
2018-01-06T12:24:38.126Z,10.93
2018-01-06T12:25:38.123Z,10.90
2018-01-06T12:26:38.123Z,10.86
2018-01-06T12:27:38.122Z,10.89
2018-01-06T12:28:38.121Z,10.86
2018-01-06T12:29:38.123Z,10.86
2018-01-06T12:30:38.117Z,10.90
2018-01-06T12:31:38.111Z,10.89
2018-01-06T12:32:38.116Z,10.90
2018-01-06T12:33:38.115Z,10.90
2018-01-06T12:34:38.133Z,10.93
2018-01-06T12:35:38.151Z,10.92
2018-01-06T12:36:38.110Z,10.84
2018-01-06T12:37:38.107Z,10.89
2018-01-06T12:38:38.113Z,10.86
2018-01-06T12:39:38.124Z,10.87
2018-01-06T12:40:38.100Z,10.94
2018-01-06T12:41:38.137Z,10.93
2018-01-06T12:42:38.092Z,10.93
2018-01-06T12:43:38.104Z,10.89
2018-01-06T12:44:38.096Z,10.89
2018-01-06T12:45:38.097Z,10.90
2018-01-06T12:46:38.099Z,10.84
2018-01-06T12:47:38.146Z,10.87
2018-01-06T12:48:38.125Z,10.86
2018-01-06T12:49:38.121Z,10.90
2018-01-06T12:50:38.104Z,10.93
2018-01-06T12:51:38.185Z,10.79
2018-01-06T12:52:38.129Z,10.86
2018-01-06T12:53:38.077Z,10.92
2018-01-06T12:54:38.189Z,10.90
2018-01-06T12:55:38.097Z,10.84
2018-01-06T12:56:38.086Z,10.89
2018-01-06T12:57:38.149Z,10.86
2018-01-06T12:58:38.119Z,10.78
2018-01-06T12:59:38.074Z,10.86
2018-01-06T13:00:38.066Z,10.76
2018-01-06T13:01:38.070Z,10.74
2018-01-06T13:02:38.130Z,10.75
2018-01-06T13:03:38.094Z,10.74
2018-01-06T13:04:38.058Z,10.74
2018-01-06T13:05:38.062Z,10.76
2018-01-06T13:06:38.069Z,10.81
2018-01-06T13:07:38.062Z,10.75
2018-01-06T13:08:38.074Z,10.81
2018-01-06T13:09:38.054Z,10.81
2018-01-06T13:10:38.082Z,10.82
2018-01-06T13:11:38.052Z,10.79
2018-01-06T13:12:38.040Z,10.89
2018-01-06T13:13:38.045Z,10.78
2018-01-06T13:14:38.043Z,10.74
2018-01-06T13:15:38.042Z,10.84
2018-01-06T13:16:38.044Z,10.79
2018-01-06T13:17:38.077Z,10.82
2018-01-06T13:18:38.041Z,10.74
2018-01-06T13:19:38.037Z,10.69
2018-01-06T13:20:38.036Z,10.72
2018-01-06T13:21:38.027Z,10.71
2018-01-06T13:22:38.032Z,10.79
2018-01-06T13:23:38.031Z,10.78
2018-01-06T13:24:38.024Z,10.79
2018-01-06T13:25:38.026Z,10.75